Druid Hills, Georgia
Current Conditions -  °F | °C
As of 7:53 PM on Tuesday 25 Nov 2014 (Local Time) from KPDK Reporting Station
Clear Clear  
Wind Chill: 53°   Ceiling: Unl
Heat Index: 53°   Visibility: 10mi
Dew Point: 29°   Wind: 5mph
Humidity: 40%   Direction: 310°NW
Pressure: 30.03"   Gusts: NA
Location:  33.7788°N, 84.3361°W
Report Text: KPDK 260053Z 31004KT 10SM CLR 12/M02 A3003 RMK AO2 PRESFR SLP173 T01171017
Loading
Personal Weather Stations






























Interactive Weather Map New forecast layout! Learn more

10-Day Weather Forecast

Advertisements
Track Severe Weather on mobile